sensor_id;sensor_type;location;lat;lon;timestamp;P1;durP1;ratioP1;P2;durP2;ratioP2
22963;SDS011;11648;49.306;6.934;2022-12-29T00:02:15;6.07;;;2.30;;
22963;SDS011;11648;49.306;6.934;2022-12-29T00:04:42;3.77;;;1.67;;
22963;SDS011;11648;49.306;6.934;2022-12-29T00:07:09;7.20;;;2.00;;
22963;SDS011;11648;49.306;6.934;2022-12-29T00:09:36;3.70;;;2.03;;
22963;SDS011;11648;49.306;6.934;2022-12-29T00:12:03;5.33;;;2.13;;
22963;SDS011;11648;49.306;6.934;2022-12-29T00:14:30;4.57;;;2.30;;
22963;SDS011;11648;49.306;6.934;2022-12-29T00:17:16;4.13;;;2.03;;
22963;SDS011;11648;49.306;6.934;2022-12-29T00:19:43;8.43;;;2.13;;
22963;SDS011;11648;49.306;6.934;2022-12-29T00:22:28;6.43;;;1.90;;
22963;SDS011;11648;49.306;6.934;2022-12-29T00:25:14;5.63;;;1.83;;
22963;SDS011;11648;49.306;6.934;2022-12-29T00:27:59;6.10;;;2.00;;
22963;SDS011;11648;49.306;6.934;2022-12-29T00:30:45;4.77;;;2.20;;
22963;SDS011;11648;49.306;6.934;2022-12-29T00:33:31;3.47;;;1.80;;
22963;SDS011;11648;49.306;6.934;2022-12-29T00:36:18;4.23;;;1.83;;
22963;SDS011;11648;49.306;6.934;2022-12-29T00:38:47;5.80;;;1.87;;
22963;SDS011;11648;49.306;6.934;2022-12-29T00:41:55;5.97;;;1.87;;
22963;SDS011;11648;49.306;6.934;2022-12-29T00:44:51;6.90;;;1.80;;
22963;SDS011;11648;49.306;6.934;2022-12-29T00:47:17;4.87;;;2.10;;
22963;SDS011;11648;49.306;6.934;2022-12-29T00:49:44;4.90;;;2.07;;
22963;SDS011;11648;49.306;6.934;2022-12-29T00:52:11;4.30;;;2.00;;
22963;SDS011;11648;49.306;6.934;2022-12-29T00:54:39;3.30;;;1.93;;
22963;SDS011;11648;49.306;6.934;2022-12-29T00:57:08;4.33;;;1.77;;
22963;SDS011;11648;49.306;6.934;2022-12-29T00:59:36;4.13;;;1.93;;
22963;SDS011;11648;49.306;6.934;2022-12-29T01:02:07;3.93;;;1.80;;
22963;SDS011;11648;49.306;6.934;2022-12-29T01:04:35;3.37;;;1.50;;
22963;SDS011;11648;49.306;6.934;2022-12-29T01:07:02;2.90;;;1.80;;
22963;SDS011;11648;49.306;6.934;2022-12-29T01:09:30;2.83;;;1.50;;
22963;SDS011;11648;49.306;6.934;2022-12-29T01:12:16;4.07;;;1.50;;
22963;SDS011;11648;49.306;6.934;2022-12-29T01:15:03;4.73;;;1.30;;
22963;SDS011;11648;49.306;6.934;2022-12-29T01:17:30;4.80;;;1.30;;
22963;SDS011;11648;49.306;6.934;2022-12-29T01:19:57;2.97;;;1.50;;
22963;SDS011;11648;49.306;6.934;2022-12-29T01:22:24;5.23;;;1.20;;
22963;SDS011;11648;49.306;6.934;2022-12-29T01:24:51;3.57;;;1.30;;
22963;SDS011;11648;49.306;6.934;2022-12-29T01:27:17;4.00;;;1.30;;
22963;SDS011;11648;49.306;6.934;2022-12-29T01:29:44;3.30;;;1.30;;
22963;SDS011;11648;49.306;6.934;2022-12-29T01:32:11;3.37;;;1.37;;
22963;SDS011;11648;49.306;6.934;2022-12-29T01:34:37;2.10;;;1.03;;
22963;SDS011;11648;49.306;6.934;2022-12-29T01:37:04;3.50;;;1.47;;
22963;SDS011;11648;49.306;6.934;2022-12-29T01:39:31;3.90;;;1.30;;
22963;SDS011;11648;49.306;6.934;2022-12-29T01:41:58;3.83;;;1.30;;
22963;SDS011;11648;49.306;6.934;2022-12-29T01:49:56;2.90;;;1.13;;
22963;SDS011;11648;49.306;6.934;2022-12-29T01:52:26;3.20;;;1.30;;
22963;SDS011;11648;49.306;6.934;2022-12-29T01:54:56;2.93;;;1.30;;
22963;SDS011;11648;49.306;6.934;2022-12-29T01:57:27;4.33;;;1.77;;
22963;SDS011;11648;49.306;6.934;2022-12-29T02:00:07;4.33;;;1.43;;
22963;SDS011;11648;49.306;6.934;2022-12-29T02:02:38;4.53;;;1.70;;
22963;SDS011;11648;49.306;6.934;2022-12-29T02:05:10;2.60;;;1.40;;
22963;SDS011;11648;49.306;6.934;2022-12-29T02:07:44;3.57;;;1.53;;
22963;SDS011;11648;49.306;6.934;2022-12-29T02:10:11;4.40;;;1.40;;
22963;SDS011;11648;49.306;6.934;2022-12-29T02:12:40;3.37;;;1.60;;
22963;SDS011;11648;49.306;6.934;2022-12-29T02:15:07;4.50;;;1.90;;
22963;SDS011;11648;49.306;6.934;2022-12-29T02:31:18;3.47;;;1.40;;
22963;SDS011;11648;49.306;6.934;2022-12-29T02:39:38;4.73;;;1.83;;
22963;SDS011;11648;49.306;6.934;2022-12-29T02:45:00;3.70;;;1.83;;
22963;SDS011;11648;49.306;6.934;2022-12-29T02:50:17;5.10;;;1.97;;
22963;SDS011;11648;49.306;6.934;2022-12-29T02:52:58;6.27;;;2.07;;
22963;SDS011;11648;49.306;6.934;2022-12-29T02:55:33;3.30;;;1.80;;
22963;SDS011;11648;49.306;6.934;2022-12-29T02:58:13;5.10;;;1.70;;
22963;SDS011;11648;49.306;6.934;2022-12-29T03:06:52;5.20;;;2.03;;
22963;SDS011;11648;49.306;6.934;2022-12-29T03:15:32;5.23;;;1.93;;
22963;SDS011;11648;49.306;6.934;2022-12-29T03:24:28;3.27;;;1.63;;
22963;SDS011;11648;49.306;6.934;2022-12-29T03:26:58;3.17;;;1.77;;
22963;SDS011;11648;49.306;6.934;2022-12-29T03:29:35;3.63;;;1.70;;
22963;SDS011;11648;49.306;6.934;2022-12-29T03:32:05;5.13;;;1.83;;
22963;SDS011;11648;49.306;6.934;2022-12-29T03:34:36;5.33;;;1.60;;
22963;SDS011;11648;49.306;6.934;2022-12-29T03:37:05;4.67;;;2.33;;
22963;SDS011;11648;49.306;6.934;2022-12-29T03:39:36;3.97;;;1.70;;
22963;SDS011;11648;49.306;6.934;2022-12-29T03:42:11;4.50;;;1.83;;
22963;SDS011;11648;49.306;6.934;2022-12-29T03:44:43;4.27;;;1.90;;
22963;SDS011;11648;49.306;6.934;2022-12-29T03:47:12;5.47;;;1.67;;
22963;SDS011;11648;49.306;6.934;2022-12-29T03:49:43;4.30;;;1.70;;
22963;SDS011;11648;49.306;6.934;2022-12-29T03:52:10;6.20;;;1.73;;
22963;SDS011;11648;49.306;6.934;2022-12-29T03:54:41;4.77;;;1.77;;
22963;SDS011;11648;49.306;6.934;2022-12-29T03:57:09;3.77;;;1.60;;
22963;SDS011;11648;49.306;6.934;2022-12-29T04:00:03;4.27;;;1.73;;
22963;SDS011;11648;49.306;6.934;2022-12-29T04:02:40;2.90;;;1.50;;
22963;SDS011;11648;49.306;6.934;2022-12-29T04:05:13;4.13;;;1.70;;
22963;SDS011;11648;49.306;6.934;2022-12-29T04:07:39;2.80;;;1.67;;
22963;SDS011;11648;49.306;6.934;2022-12-29T04:10:06;2.97;;;1.80;;
22963;SDS011;11648;49.306;6.934;2022-12-29T04:12:34;4.27;;;1.70;;
22963;SDS011;11648;49.306;6.934;2022-12-29T04:15:01;2.47;;;1.50;;
22963;SDS011;11648;49.306;6.934;2022-12-29T04:17:28;3.83;;;1.50;;
22963;SDS011;11648;49.306;6.934;2022-12-29T04:19:55;3.90;;;1.63;;
22963;SDS011;11648;49.306;6.934;2022-12-29T04:22:42;4.20;;;1.60;;
22963;SDS011;11648;49.306;6.934;2022-12-29T04:25:08;3.37;;;1.80;;
22963;SDS011;11648;49.306;6.934;2022-12-29T04:27:36;3.37;;;1.50;;
22963;SDS011;11648;49.306;6.934;2022-12-29T04:30:25;4.17;;;1.47;;
22963;SDS011;11648;49.306;6.934;2022-12-29T04:33:03;4.17;;;1.73;;
22963;SDS011;11648;49.306;6.934;2022-12-29T04:35:29;5.43;;;1.60;;
22963;SDS011;11648;49.306;6.934;2022-12-29T04:37:56;3.83;;;1.50;;
22963;SDS011;11648;49.306;6.934;2022-12-29T04:40:23;3.97;;;1.60;;
22963;SDS011;11648;49.306;6.934;2022-12-29T04:42:50;3.33;;;1.50;;
22963;SDS011;11648;49.306;6.934;2022-12-29T04:45:18;4.87;;;1.63;;
22963;SDS011;11648;49.306;6.934;2022-12-29T04:47:57;3.60;;;1.50;;
22963;SDS011;11648;49.306;6.934;2022-12-29T04:50:56;2.97;;;1.40;;
22963;SDS011;11648;49.306;6.934;2022-12-29T04:53:24;6.50;;;1.50;;
22963;SDS011;11648;49.306;6.934;2022-12-29T04:55:52;4.90;;;1.57;;
22963;SDS011;11648;49.306;6.934;2022-12-29T04:58:20;3.63;;;1.60;;
22963;SDS011;11648;49.306;6.934;2022-12-29T05:00:50;4.97;;;1.57;;
22963;SDS011;11648;49.306;6.934;2022-12-29T05:03:20;3.33;;;1.43;;
22963;SDS011;11648;49.306;6.934;2022-12-29T05:05:47;4.80;;;1.80;;
22963;SDS011;11648;49.306;6.934;2022-12-29T05:08:14;5.53;;;1.77;;
22963;SDS011;11648;49.306;6.934;2022-12-29T05:10:44;3.67;;;1.37;;
22963;SDS011;11648;49.306;6.934;2022-12-29T05:13:12;2.93;;;1.47;;
22963;SDS011;11648;49.306;6.934;2022-12-29T05:15:41;3.10;;;1.70;;
22963;SDS011;11648;49.306;6.934;2022-12-29T05:18:14;3.23;;;1.60;;
22963;SDS011;11648;49.306;6.934;2022-12-29T05:20:41;4.40;;;1.37;;
22963;SDS011;11648;49.306;6.934;2022-12-29T05:23:08;3.63;;;1.43;;
22963;SDS011;11648;49.306;6.934;2022-12-29T05:25:35;4.30;;;1.77;;
22963;SDS011;11648;49.306;6.934;2022-12-29T05:28:27;4.13;;;1.40;;
22963;SDS011;11648;49.306;6.934;2022-12-29T05:31:04;3.27;;;1.60;;
22963;SDS011;11648;49.306;6.934;2022-12-29T05:33:31;3.83;;;1.50;;
22963;SDS011;11648;49.306;6.934;2022-12-29T05:36:05;5.97;;;1.80;;
22963;SDS011;11648;49.306;6.934;2022-12-29T05:38:34;4.27;;;1.90;;
22963;SDS011;11648;49.306;6.934;2022-12-29T05:41:01;3.57;;;1.40;;
22963;SDS011;11648;49.306;6.934;2022-12-29T05:43:48;5.90;;;1.70;;
22963;SDS011;11648;49.306;6.934;2022-12-29T05:46:27;4.93;;;1.90;;
22963;SDS011;11648;49.306;6.934;2022-12-29T05:49:06;4.20;;;1.90;;
22963;SDS011;11648;49.306;6.934;2022-12-29T05:51:52;4.20;;;1.80;;
22963;SDS011;11648;49.306;6.934;2022-12-29T05:54:18;3.77;;;1.87;;
22963;SDS011;11648;49.306;6.934;2022-12-29T05:56:45;4.03;;;1.90;;
22963;SDS011;11648;49.306;6.934;2022-12-29T05:59:12;3.30;;;1.73;;
22963;SDS011;11648;49.306;6.934;2022-12-29T06:01:39;7.00;;;2.13;;
22963;SDS011;11648;49.306;6.934;2022-12-29T06:04:06;4.10;;;1.87;;
22963;SDS011;11648;49.306;6.934;2022-12-29T06:06:33;4.00;;;1.83;;
22963;SDS011;11648;49.306;6.934;2022-12-29T06:09:01;4.27;;;2.03;;
22963;SDS011;11648;49.306;6.934;2022-12-29T06:11:28;4.17;;;1.90;;
22963;SDS011;11648;49.306;6.934;2022-12-29T06:13:57;3.83;;;2.10;;
22963;SDS011;11648;49.306;6.934;2022-12-29T06:16:24;4.37;;;2.00;;
22963;SDS011;11648;49.306;6.934;2022-12-29T06:18:54;5.33;;;2.13;;
22963;SDS011;11648;49.306;6.934;2022-12-29T06:21:21;6.13;;;2.07;;
22963;SDS011;11648;49.306;6.934;2022-12-29T06:23:48;4.50;;;2.00;;
22963;SDS011;11648;49.306;6.934;2022-12-29T06:26:15;4.53;;;2.23;;
22963;SDS011;11648;49.306;6.934;2022-12-29T06:28:43;4.90;;;2.23;;
22963;SDS011;11648;49.306;6.934;2022-12-29T06:31:10;5.93;;;2.50;;
22963;SDS011;11648;49.306;6.934;2022-12-29T06:33:37;4.20;;;2.00;;
22963;SDS011;11648;49.306;6.934;2022-12-29T06:36:05;4.13;;;2.17;;
22963;SDS011;11648;49.306;6.934;2022-12-29T06:38:32;6.43;;;2.50;;
22963;SDS011;11648;49.306;6.934;2022-12-29T06:40:59;5.53;;;2.27;;
22963;SDS011;11648;49.306;6.934;2022-12-29T06:43:44;4.80;;;2.33;;
22963;SDS011;11648;49.306;6.934;2022-12-29T06:46:27;6.43;;;2.40;;
22963;SDS011;11648;49.306;6.934;2022-12-29T06:48:54;4.43;;;2.30;;
22963;SDS011;11648;49.306;6.934;2022-12-29T06:51:21;4.90;;;2.60;;
22963;SDS011;11648;49.306;6.934;2022-12-29T06:53:48;5.60;;;2.20;;
22963;SDS011;11648;49.306;6.934;2022-12-29T06:56:15;6.57;;;2.33;;
22963;SDS011;11648;49.306;6.934;2022-12-29T06:58:41;6.13;;;2.23;;
22963;SDS011;11648;49.306;6.934;2022-12-29T07:01:08;6.40;;;2.57;;
22963;SDS011;11648;49.306;6.934;2022-12-29T07:03:35;3.40;;;2.03;;
22963;SDS011;11648;49.306;6.934;2022-12-29T07:06:02;6.13;;;2.60;;
22963;SDS011;11648;49.306;6.934;2022-12-29T07:08:29;7.00;;;2.63;;
22963;SDS011;11648;49.306;6.934;2022-12-29T07:10:56;7.63;;;2.63;;
22963;SDS011;11648;49.306;6.934;2022-12-29T07:13:22;5.57;;;2.83;;
22963;SDS011;11648;49.306;6.934;2022-12-29T07:15:49;5.47;;;3.00;;
22963;SDS011;11648;49.306;6.934;2022-12-29T07:18:16;6.27;;;3.37;;
22963;SDS011;11648;49.306;6.934;2022-12-29T07:20:43;5.80;;;2.90;;
22963;SDS011;11648;49.306;6.934;2022-12-29T07:23:09;7.70;;;2.80;;
22963;SDS011;11648;49.306;6.934;2022-12-29T07:25:36;6.70;;;2.63;;
22963;SDS011;11648;49.306;6.934;2022-12-29T07:28:03;4.77;;;2.70;;
22963;SDS011;11648;49.306;6.934;2022-12-29T07:30:30;8.40;;;2.87;;
22963;SDS011;11648;49.306;6.934;2022-12-29T07:32:57;7.40;;;3.10;;
22963;SDS011;11648;49.306;6.934;2022-12-29T07:35:23;6.83;;;2.90;;
22963;SDS011;11648;49.306;6.934;2022-12-29T07:37:50;5.47;;;2.80;;
22963;SDS011;11648;49.306;6.934;2022-12-29T07:40:17;5.17;;;2.50;;
22963;SDS011;11648;49.306;6.934;2022-12-29T07:42:43;4.63;;;2.50;;
22963;SDS011;11648;49.306;6.934;2022-12-29T07:45:11;6.47;;;2.87;;
22963;SDS011;11648;49.306;6.934;2022-12-29T07:47:52;8.50;;;3.53;;
22963;SDS011;11648;49.306;6.934;2022-12-29T07:50:19;5.07;;;2.87;;
22963;SDS011;11648;49.306;6.934;2022-12-29T07:52:45;8.47;;;3.20;;
22963;SDS011;11648;49.306;6.934;2022-12-29T07:55:14;6.87;;;2.90;;
22963;SDS011;11648;49.306;6.934;2022-12-29T07:57:42;6.43;;;2.87;;
22963;SDS011;11648;49.306;6.934;2022-12-29T08:00:09;4.20;;;2.50;;
22963;SDS011;11648;49.306;6.934;2022-12-29T08:02:39;6.00;;;2.60;;
22963;SDS011;11648;49.306;6.934;2022-12-29T08:05:06;5.60;;;2.63;;
22963;SDS011;11648;49.306;6.934;2022-12-29T08:07:33;5.47;;;2.53;;
22963;SDS011;11648;49.306;6.934;2022-12-29T08:09:59;4.97;;;2.10;;
22963;SDS011;11648;49.306;6.934;2022-12-29T08:12:27;6.20;;;2.17;;
22963;SDS011;11648;49.306;6.934;2022-12-29T08:14:54;6.10;;;2.67;;
22963;SDS011;11648;49.306;6.934;2022-12-29T08:17:21;5.53;;;2.43;;
22963;SDS011;11648;49.306;6.934;2022-12-29T08:19:48;3.70;;;2.40;;
22963;SDS011;11648;49.306;6.934;2022-12-29T08:22:15;5.87;;;2.40;;
22963;SDS011;11648;49.306;6.934;2022-12-29T08:24:42;5.77;;;2.93;;
22963;SDS011;11648;49.306;6.934;2022-12-29T08:27:08;7.03;;;2.90;;
22963;SDS011;11648;49.306;6.934;2022-12-29T08:29:45;4.87;;;2.70;;
22963;SDS011;11648;49.306;6.934;2022-12-29T08:32:12;8.77;;;3.00;;
22963;SDS011;11648;49.306;6.934;2022-12-29T08:34:39;5.57;;;2.50;;
22963;SDS011;11648;49.306;6.934;2022-12-29T08:37:06;5.00;;;2.60;;
22963;SDS011;11648;49.306;6.934;2022-12-29T08:39:32;9.20;;;4.23;;
22963;SDS011;11648;49.306;6.934;2022-12-29T08:42:00;10.13;;;4.80;;
22963;SDS011;11648;49.306;6.934;2022-12-29T08:44:26;8.07;;;3.80;;
22963;SDS011;11648;49.306;6.934;2022-12-29T08:46:53;5.83;;;3.10;;
22963;SDS011;11648;49.306;6.934;2022-12-29T08:49:20;5.43;;;2.40;;
22963;SDS011;11648;49.306;6.934;2022-12-29T08:51:47;5.60;;;2.93;;
22963;SDS011;11648;49.306;6.934;2022-12-29T08:54:14;4.47;;;2.20;;
22963;SDS011;11648;49.306;6.934;2022-12-29T08:56:40;6.93;;;2.53;;
22963;SDS011;11648;49.306;6.934;2022-12-29T08:59:07;3.20;;;2.10;;
22963;SDS011;11648;49.306;6.934;2022-12-29T09:01:34;5.20;;;2.20;;
22963;SDS011;11648;49.306;6.934;2022-12-29T09:04:02;4.57;;;2.00;;
22963;SDS011;11648;49.306;6.934;2022-12-29T09:06:40;5.97;;;2.53;;
22963;SDS011;11648;49.306;6.934;2022-12-29T09:09:07;5.80;;;1.90;;
22963;SDS011;11648;49.306;6.934;2022-12-29T09:11:34;7.10;;;2.13;;
22963;SDS011;11648;49.306;6.934;2022-12-29T09:14:00;4.47;;;2.10;;
22963;SDS011;11648;49.306;6.934;2022-12-29T09:16:27;4.80;;;2.37;;
22963;SDS011;11648;49.306;6.934;2022-12-29T09:18:54;3.90;;;2.00;;
22963;SDS011;11648;49.306;6.934;2022-12-29T09:21:21;4.53;;;1.97;;
22963;SDS011;11648;49.306;6.934;2022-12-29T09:23:48;4.83;;;2.53;;
22963;SDS011;11648;49.306;6.934;2022-12-29T09:26:14;5.47;;;2.13;;
22963;SDS011;11648;49.306;6.934;2022-12-29T09:28:41;3.80;;;2.43;;
22963;SDS011;11648;49.306;6.934;2022-12-29T09:31:08;8.03;;;2.67;;
22963;SDS011;11648;49.306;6.934;2022-12-29T09:33:35;6.03;;;2.60;;
22963;SDS011;11648;49.306;6.934;2022-12-29T09:36:02;5.10;;;2.77;;
22963;SDS011;11648;49.306;6.934;2022-12-29T09:38:29;4.43;;;2.37;;
22963;SDS011;11648;49.306;6.934;2022-12-29T09:41:08;4.27;;;2.17;;
22963;SDS011;11648;49.306;6.934;2022-12-29T09:43:59;3.83;;;2.10;;
22963;SDS011;11648;49.306;6.934;2022-12-29T09:46:37;4.50;;;1.77;;
22963;SDS011;11648;49.306;6.934;2022-12-29T09:52:11;6.60;;;1.80;;
22963;SDS011;11648;49.306;6.934;2022-12-29T09:54:51;3.97;;;1.57;;
22963;SDS011;11648;49.306;6.934;2022-12-29T10:00:14;5.10;;;1.70;;
22963;SDS011;11648;49.306;6.934;2022-12-29T10:02:44;5.40;;;1.70;;
22963;SDS011;11648;49.306;6.934;2022-12-29T10:05:31;5.17;;;1.90;;
22963;SDS011;11648;49.306;6.934;2022-12-29T10:14:38;4.33;;;1.50;;
22963;SDS011;11648;49.306;6.934;2022-12-29T10:24:44;3.00;;;0.90;;
22963;SDS011;11648;49.306;6.934;2022-12-29T10:27:15;3.33;;;0.77;;
22963;SDS011;11648;49.306;6.934;2022-12-29T10:29:44;3.70;;;0.60;;
22963;SDS011;11648;49.306;6.934;2022-12-29T10:32:20;2.47;;;0.80;;
22963;SDS011;11648;49.306;6.934;2022-12-29T10:34:50;2.33;;;0.70;;
22963;SDS011;11648;49.306;6.934;2022-12-29T10:40:48;3.73;;;1.10;;
22963;SDS011;11648;49.306;6.934;2022-12-29T10:42:59;5.57;;;1.30;;
22963;SDS011;11648;49.306;6.934;2022-12-29T10:45:30;4.03;;;1.30;;
22963;SDS011;11648;49.306;6.934;2022-12-29T10:48:00;4.10;;;1.30;;
22963;SDS011;11648;49.306;6.934;2022-12-29T10:50:35;4.37;;;1.40;;
22963;SDS011;11648;49.306;6.934;2022-12-29T10:53:15;4.93;;;1.20;;
22963;SDS011;11648;49.306;6.934;2022-12-29T10:55:48;5.40;;;1.40;;
22963;SDS011;11648;49.306;6.934;2022-12-29T10:58:16;3.53;;;1.20;;
22963;SDS011;11648;49.306;6.934;2022-12-29T11:00:47;4.73;;;1.50;;
22963;SDS011;11648;49.306;6.934;2022-12-29T11:08:30;3.13;;;1.17;;
22963;SDS011;11648;49.306;6.934;2022-12-29T11:11:03;3.33;;;1.13;;
22963;SDS011;11648;49.306;6.934;2022-12-29T11:13:32;3.83;;;1.27;;
22963;SDS011;11648;49.306;6.934;2022-12-29T11:16:04;3.63;;;1.10;;
22963;SDS011;11648;49.306;6.934;2022-12-29T11:21:07;3.77;;;1.00;;
22963;SDS011;11648;49.306;6.934;2022-12-29T11:24:02;3.77;;;0.97;;
22963;SDS011;11648;49.306;6.934;2022-12-29T11:26:31;4.33;;;1.20;;
22963;SDS011;11648;49.306;6.934;2022-12-29T11:37:06;4.87;;;1.20;;
22963;SDS011;11648;49.306;6.934;2022-12-29T11:42:18;6.83;;;0.83;;
22963;SDS011;11648;49.306;6.934;2022-12-29T11:44:49;4.33;;;0.90;;
22963;SDS011;11648;49.306;6.934;2022-12-29T11:47:25;3.60;;;1.07;;
22963;SDS011;11648;49.306;6.934;2022-12-29T11:49:58;3.20;;;0.83;;
22963;SDS011;11648;49.306;6.934;2022-12-29T11:52:29;2.67;;;0.70;;
22963;SDS011;11648;49.306;6.934;2022-12-29T11:54:59;5.40;;;0.90;;
22963;SDS011;11648;49.306;6.934;2022-12-29T11:57:28;5.83;;;1.10;;
22963;SDS011;11648;49.306;6.934;2022-12-29T11:59:56;3.17;;;0.90;;
22963;SDS011;11648;49.306;6.934;2022-12-29T12:05:22;3.63;;;1.00;;
22963;SDS011;11648;49.306;6.934;2022-12-29T12:10:48;3.37;;;0.80;;
22963;SDS011;11648;49.306;6.934;2022-12-29T12:18:53;2.50;;;0.70;;
22963;SDS011;11648;49.306;6.934;2022-12-29T12:27:10;2.77;;;0.40;;
22963;SDS011;11648;49.306;6.934;2022-12-29T12:32:29;3.07;;;0.70;;
22963;SDS011;11648;49.306;6.934;2022-12-29T12:35:13;3.03;;;0.77;;
22963;SDS011;11648;49.306;6.934;2022-12-29T12:37:52;2.97;;;0.60;;
22963;SDS011;11648;49.306;6.934;2022-12-29T12:40:53;2.50;;;0.50;;
22963;SDS011;11648;49.306;6.934;2022-12-29T12:52:05;4.10;;;1.77;;
22963;SDS011;11648;49.306;6.934;2022-12-29T13:00:03;2.37;;;0.60;;
22963;SDS011;11648;49.306;6.934;2022-12-29T13:05:44;2.53;;;0.53;;
22963;SDS011;11648;49.306;6.934;2022-12-29T13:08:37;2.37;;;0.50;;
22963;SDS011;11648;49.306;6.934;2022-12-29T13:22:07;3.67;;;0.60;;
22963;SDS011;11648;49.306;6.934;2022-12-29T13:24:43;3.37;;;0.90;;
22963;SDS011;11648;49.306;6.934;2022-12-29T13:28:30;3.67;;;0.70;;
22963;SDS011;11648;49.306;6.934;2022-12-29T13:30:57;2.00;;;0.50;;
22963;SDS011;11648;49.306;6.934;2022-12-29T13:33:45;3.80;;;0.63;;
22963;SDS011;11648;49.306;6.934;2022-12-29T13:36:29;2.57;;;0.60;;
22963;SDS011;11648;49.306;6.934;2022-12-29T13:39:16;3.87;;;0.80;;
22963;SDS011;11648;49.306;6.934;2022-12-29T13:41:48;4.87;;;0.93;;
22963;SDS011;11648;49.306;6.934;2022-12-29T13:44:22;3.40;;;0.50;;
22963;SDS011;11648;49.306;6.934;2022-12-29T13:46:51;2.93;;;0.70;;
22963;SDS011;11648;49.306;6.934;2022-12-29T13:49:21;2.63;;;0.50;;
22963;SDS011;11648;49.306;6.934;2022-12-29T13:51:55;3.63;;;0.60;;
22963;SDS011;11648;49.306;6.934;2022-12-29T13:54:41;3.83;;;0.70;;
22963;SDS011;11648;49.306;6.934;2022-12-29T13:57:35;2.40;;;0.60;;
22963;SDS011;11648;49.306;6.934;2022-12-29T14:00:14;3.30;;;0.70;;
22963;SDS011;11648;49.306;6.934;2022-12-29T14:07:44;4.97;;;1.10;;
22963;SDS011;11648;49.306;6.934;2022-12-29T14:10:34;2.83;;;0.70;;
22963;SDS011;11648;49.306;6.934;2022-12-29T14:13:23;2.97;;;0.90;;
22963;SDS011;11648;49.306;6.934;2022-12-29T14:15:52;5.40;;;0.83;;
22963;SDS011;11648;49.306;6.934;2022-12-29T14:18:21;4.87;;;0.93;;
22963;SDS011;11648;49.306;6.934;2022-12-29T14:20:55;6.77;;;0.90;;
22963;SDS011;11648;49.306;6.934;2022-12-29T14:23:37;5.43;;;0.93;;
22963;SDS011;11648;49.306;6.934;2022-12-29T14:28:34;5.73;;;1.03;;
22963;SDS011;11648;49.306;6.934;2022-12-29T14:33:41;6.07;;;1.07;;
22963;SDS011;11648;49.306;6.934;2022-12-29T14:36:35;5.37;;;0.90;;
22963;SDS011;11648;49.306;6.934;2022-12-29T14:39:03;5.63;;;0.90;;
22963;SDS011;11648;49.306;6.934;2022-12-29T14:41:37;6.03;;;0.90;;
22963;SDS011;11648;49.306;6.934;2022-12-29T14:49:21;6.57;;;1.10;;
22963;SDS011;11648;49.306;6.934;2022-12-29T14:51:51;3.97;;;0.90;;
22963;SDS011;11648;49.306;6.934;2022-12-29T14:57:00;5.87;;;1.10;;
22963;SDS011;11648;49.306;6.934;2022-12-29T14:59:30;5.17;;;1.10;;
22963;SDS011;11648;49.306;6.934;2022-12-29T15:02:01;6.37;;;1.20;;
22963;SDS011;11648;49.306;6.934;2022-12-29T15:04:31;7.53;;;1.40;;
22963;SDS011;11648;49.306;6.934;2022-12-29T15:07:02;4.77;;;0.90;;
22963;SDS011;11648;49.306;6.934;2022-12-29T15:09:34;4.13;;;1.30;;
22963;SDS011;11648;49.306;6.934;2022-12-29T15:15:27;5.70;;;1.10;;
22963;SDS011;11648;49.306;6.934;2022-12-29T15:17:57;4.03;;;1.10;;
22963;SDS011;11648;49.306;6.934;2022-12-29T15:20:39;6.03;;;1.17;;
22963;SDS011;11648;49.306;6.934;2022-12-29T15:23:12;6.90;;;1.20;;
22963;SDS011;11648;49.306;6.934;2022-12-29T15:25:48;6.60;;;1.20;;
22963;SDS011;11648;49.306;6.934;2022-12-29T15:28:20;8.13;;;1.50;;
22963;SDS011;11648;49.306;6.934;2022-12-29T15:30:52;5.90;;;1.17;;
22963;SDS011;11648;49.306;6.934;2022-12-29T15:33:36;6.67;;;1.30;;
22963;SDS011;11648;49.306;6.934;2022-12-29T15:36:10;5.47;;;1.33;;
22963;SDS011;11648;49.306;6.934;2022-12-29T15:38:39;6.00;;;1.57;;
22963;SDS011;11648;49.306;6.934;2022-12-29T15:41:07;9.87;;;1.37;;
22963;SDS011;11648;49.306;6.934;2022-12-29T15:43:51;5.67;;;0.90;;
22963;SDS011;11648;49.306;6.934;2022-12-29T15:46:27;9.23;;;1.57;;
22963;SDS011;11648;49.306;6.934;2022-12-29T15:48:57;6.93;;;1.33;;
22963;SDS011;11648;49.306;6.934;2022-12-29T15:51:32;4.93;;;1.37;;
22963;SDS011;11648;49.306;6.934;2022-12-29T15:54:01;6.40;;;1.40;;
22963;SDS011;11648;49.306;6.934;2022-12-29T15:56:29;7.47;;;2.10;;
22963;SDS011;11648;49.306;6.934;2022-12-29T15:58:57;7.23;;;1.27;;
22963;SDS011;11648;49.306;6.934;2022-12-29T16:01:30;6.63;;;1.60;;
22963;SDS011;11648;49.306;6.934;2022-12-29T16:03:59;10.23;;;1.73;;
22963;SDS011;11648;49.306;6.934;2022-12-29T16:06:30;5.47;;;1.37;;
22963;SDS011;11648;49.306;6.934;2022-12-29T16:09:47;7.37;;;1.50;;
22963;SDS011;11648;49.306;6.934;2022-12-29T16:12:05;10.63;;;1.60;;
22963;SDS011;11648;49.306;6.934;2022-12-29T16:14:40;6.73;;;1.53;;
22963;SDS011;11648;49.306;6.934;2022-12-29T16:17:15;8.57;;;2.13;;
22963;SDS011;11648;49.306;6.934;2022-12-29T16:19:49;10.50;;;1.80;;
22963;SDS011;11648;49.306;6.934;2022-12-29T16:22:32;9.13;;;1.43;;
22963;SDS011;11648;49.306;6.934;2022-12-29T16:25:04;6.73;;;1.37;;
22963;SDS011;11648;49.306;6.934;2022-12-29T16:27:51;7.60;;;1.40;;
22963;SDS011;11648;49.306;6.934;2022-12-29T16:30:23;7.33;;;1.67;;
22963;SDS011;11648;49.306;6.934;2022-12-29T16:33:00;9.67;;;2.40;;
22963;SDS011;11648;49.306;6.934;2022-12-29T16:35:37;9.33;;;1.77;;
22963;SDS011;11648;49.306;6.934;2022-12-29T16:38:20;8.18;;;1.60;;
22963;SDS011;11648;49.306;6.934;2022-12-29T16:40:52;8.53;;;1.30;;
22963;SDS011;11648;49.306;6.934;2022-12-29T16:48:31;8.13;;;1.60;;
22963;SDS011;11648;49.306;6.934;2022-12-29T16:51:03;8.70;;;1.50;;
22963;SDS011;11648;49.306;6.934;2022-12-29T16:53:34;7.43;;;2.10;;
22963;SDS011;11648;49.306;6.934;2022-12-29T16:56:13;8.90;;;2.17;;
22963;SDS011;11648;49.306;6.934;2022-12-29T16:58:46;7.03;;;1.97;;
22963;SDS011;11648;49.306;6.934;2022-12-29T17:01:20;7.37;;;2.10;;
22963;SDS011;11648;49.306;6.934;2022-12-29T17:03:51;10.07;;;2.00;;
22963;SDS011;11648;49.306;6.934;2022-12-29T17:06:20;8.27;;;2.20;;
22963;SDS011;11648;49.306;6.934;2022-12-29T17:08:49;7.90;;;1.77;;
22963;SDS011;11648;49.306;6.934;2022-12-29T17:11:21;8.23;;;1.90;;
22963;SDS011;11648;49.306;6.934;2022-12-29T17:17:16;10.80;;;2.60;;
22963;SDS011;11648;49.306;6.934;2022-12-29T17:19:47;8.63;;;2.10;;
22963;SDS011;11648;49.306;6.934;2022-12-29T17:22:22;9.73;;;1.83;;
22963;SDS011;11648;49.306;6.934;2022-12-29T17:24:55;8.63;;;1.87;;
22963;SDS011;11648;49.306;6.934;2022-12-29T17:30:01;7.37;;;1.63;;
22963;SDS011;11648;49.306;6.934;2022-12-29T17:32:37;7.60;;;1.63;;
22963;SDS011;11648;49.306;6.934;2022-12-29T17:35:05;5.00;;;1.50;;
22963;SDS011;11648;49.306;6.934;2022-12-29T17:37:41;9.20;;;1.80;;
22963;SDS011;11648;49.306;6.934;2022-12-29T17:40:13;8.27;;;1.70;;
22963;SDS011;11648;49.306;6.934;2022-12-29T17:42:42;5.33;;;1.47;;
22963;SDS011;11648;49.306;6.934;2022-12-29T17:45:13;7.53;;;1.83;;
22963;SDS011;11648;49.306;6.934;2022-12-29T17:47:42;12.70;;;2.20;;
22963;SDS011;11648;49.306;6.934;2022-12-29T17:50:13;8.23;;;1.87;;
22963;SDS011;11648;49.306;6.934;2022-12-29T17:52:42;8.60;;;1.87;;
22963;SDS011;11648;49.306;6.934;2022-12-29T17:55:27;10.37;;;2.07;;
22963;SDS011;11648;49.306;6.934;2022-12-29T18:00:46;9.57;;;2.03;;
22963;SDS011;11648;49.306;6.934;2022-12-29T18:03:14;8.47;;;1.73;;
22963;SDS011;11648;49.306;6.934;2022-12-29T18:05:43;9.37;;;2.63;;
22963;SDS011;11648;49.306;6.934;2022-12-29T18:08:10;10.00;;;2.20;;
22963;SDS011;11648;49.306;6.934;2022-12-29T18:10:38;9.37;;;2.10;;
22963;SDS011;11648;49.306;6.934;2022-12-29T18:13:05;6.53;;;1.77;;